createdAt,value
2022-11-02T00:00:03.981Z,1009.32
2022-11-02T00:01:03.938Z,1009.31
2022-11-02T00:02:04.075Z,1009.35
2022-11-02T00:03:04.288Z,1009.33
2022-11-02T00:04:03.918Z,1009.35
2022-11-02T00:05:03.956Z,1009.35
2022-11-02T00:06:03.911Z,1009.35
2022-11-02T00:07:03.885Z,1009.38
2022-11-02T00:08:03.863Z,1009.38
2022-11-02T00:09:03.860Z,1009.36
2022-11-02T00:10:03.871Z,1009.35
2022-11-02T00:11:03.868Z,1009.36
2022-11-02T00:12:03.821Z,1009.34
2022-11-02T00:13:04.222Z,1009.35
2022-11-02T00:14:03.806Z,1009.34
2022-11-02T00:15:03.802Z,1009.33
2022-11-02T00:16:03.802Z,1009.30
2022-11-02T00:17:03.778Z,1009.31
2022-11-02T00:18:09.775Z,1009.29
2022-11-02T00:19:03.763Z,1009.30
2022-11-02T00:20:03.829Z,1009.28
2022-11-02T00:21:03.722Z,1009.29
2022-11-02T00:22:03.738Z,1009.30
2022-11-02T00:23:04.074Z,1009.31
2022-11-02T00:24:03.697Z,1009.32
2022-11-02T00:25:03.689Z,1009.31
2022-11-02T00:26:03.691Z,1009.30
2022-11-02T00:27:03.721Z,1009.30
2022-11-02T00:28:03.676Z,1009.29
2022-11-02T00:29:03.641Z,1009.31
2022-11-02T00:30:03.711Z,1009.33
2022-11-02T00:31:03.701Z,1009.33
2022-11-02T00:32:03.670Z,1009.32
2022-11-02T00:33:03.999Z,1009.30
2022-11-02T00:34:03.633Z,1009.27
2022-11-02T00:35:03.626Z,1009.26
2022-11-02T00:36:03.596Z,1009.26
2022-11-02T00:37:03.649Z,1009.25
2022-11-02T00:38:03.908Z,1009.25
2022-11-02T00:39:03.558Z,1009.25
2022-11-02T00:40:03.637Z,1009.26
2022-11-02T00:41:03.523Z,1009.26
2022-11-02T00:42:03.513Z,1009.25
2022-11-02T00:43:03.515Z,1009.25
2022-11-02T00:44:03.496Z,1009.24
2022-11-02T00:45:03.479Z,1009.23
2022-11-02T00:46:03.458Z,1009.21
2022-11-02T00:47:03.467Z,1009.21
2022-11-02T00:48:03.758Z,1009.20
2022-11-02T00:49:03.462Z,1009.20
2022-11-02T00:50:03.521Z,1009.20
2022-11-02T00:51:03.411Z,1009.19
2022-11-02T00:52:03.404Z,1009.18
2022-11-02T00:53:03.399Z,1009.18
2022-11-02T00:54:03.406Z,1009.19
2022-11-02T00:55:03.359Z,1009.19
2022-11-02T00:56:03.368Z,1009.20
2022-11-02T00:57:03.757Z,1009.19
2022-11-02T00:58:03.616Z,1009.19
2022-11-02T00:59:03.323Z,1009.19
2022-11-02T01:00:04.016Z,1009.18
2022-11-02T01:01:03.316Z,1009.20
2022-11-02T01:02:03.447Z,1009.21
2022-11-02T01:03:03.302Z,1009.19
2022-11-02T01:04:03.265Z,1009.19
2022-11-02T01:05:03.260Z,1009.19
2022-11-02T01:06:03.242Z,1009.19
2022-11-02T01:07:03.229Z,1009.18
2022-11-02T01:08:03.699Z,1009.19
2022-11-02T01:09:03.239Z,1009.19
2022-11-02T01:10:03.988Z,1009.20
2022-11-02T01:11:03.192Z,1009.22
2022-11-02T01:12:03.198Z,1009.24
2022-11-02T01:13:03.174Z,1009.24
2022-11-02T01:14:03.167Z,1009.25
2022-11-02T01:15:03.229Z,1009.24
2022-11-02T01:16:03.153Z,1009.23
2022-11-02T01:17:03.134Z,1009.23
2022-11-02T01:18:03.619Z,1009.22
2022-11-02T01:19:03.117Z,1009.20
2022-11-02T01:20:03.108Z,1009.19
2022-11-02T01:21:03.150Z,1009.17
2022-11-02T01:22:03.084Z,1009.18
2022-11-02T01:23:03.064Z,1009.20
2022-11-02T01:24:03.068Z,1009.21
2022-11-02T01:25:03.039Z,1009.19
2022-11-02T01:26:03.044Z,1009.16
2022-11-02T01:27:03.042Z,1009.15
2022-11-02T01:28:03.211Z,1009.15
2022-11-02T01:29:03.071Z,1009.15
2022-11-02T01:30:02.994Z,1009.14
2022-11-02T01:31:02.992Z,1009.12
2022-11-02T01:32:02.982Z,1009.10
2022-11-02T01:33:02.961Z,1009.09
2022-11-02T01:34:02.961Z,1009.07
2022-11-02T01:35:02.992Z,1009.06
2022-11-02T01:36:02.933Z,1009.07
2022-11-02T01:37:02.934Z,1009.07
2022-11-02T01:38:03.292Z,1009.09
2022-11-02T01:39:02.891Z,1009.09
2022-11-02T01:40:02.882Z,1009.11
2022-11-02T01:41:02.873Z,1009.11
2022-11-02T01:42:02.894Z,1009.10
2022-11-02T01:43:02.867Z,1009.05
2022-11-02T01:44:02.858Z,1009.05
2022-11-02T01:45:02.831Z,1009.05
2022-11-02T01:46:02.823Z,1009.04
2022-11-02T01:47:02.817Z,1009.02
2022-11-02T01:48:03.186Z,1009.01
2022-11-02T01:49:02.831Z,1009.01
2022-11-02T01:50:02.800Z,1009.02
2022-11-02T01:51:02.767Z,1009.04
2022-11-02T01:52:02.762Z,1009.02
2022-11-02T01:53:02.749Z,1009.01
2022-11-02T01:54:02.760Z,1009.01
2022-11-02T01:55:02.752Z,1009.02
2022-11-02T01:56:02.721Z,1008.99
2022-11-02T01:57:02.709Z,1009.02
2022-11-02T01:58:03.288Z,1009.02
2022-11-02T01:59:02.701Z,1009.02
2022-11-02T02:00:02.691Z,1009.00
2022-11-02T02:01:02.672Z,1008.98
2022-11-02T02:02:02.758Z,1008.96
2022-11-02T02:03:02.641Z,1008.95
2022-11-02T02:04:02.652Z,1008.94
2022-11-02T02:05:02.614Z,1008.90
2022-11-02T02:06:02.637Z,1008.89
2022-11-02T02:07:02.598Z,1008.90
2022-11-02T02:08:02.990Z,1008.92
2022-11-02T02:09:02.582Z,1008.93
2022-11-02T02:10:02.801Z,1008.92
2022-11-02T06:01:16.498Z,1009.69
2022-11-02T06:02:17.401Z,1009.71
2022-11-02T06:03:23.423Z,1009.73
2022-11-02T06:04:17.616Z,1009.78
2022-11-02T06:05:17.409Z,1009.80
2022-11-02T06:06:17.377Z,1009.83
2022-11-02T06:07:17.382Z,1009.86
2022-11-02T06:08:17.342Z,1009.88
2022-11-02T06:09:17.316Z,1009.86
2022-11-02T06:10:17.310Z,1009.87
2022-11-02T06:11:17.316Z,1009.88
2022-11-02T06:12:17.330Z,1009.89
2022-11-02T06:13:17.279Z,1009.91
2022-11-02T06:14:17.292Z,1009.93
2022-11-02T06:15:17.255Z,1009.92
2022-11-02T06:17:27.590Z,1009.95
2022-11-02T06:18:28.536Z,1009.96
2022-11-02T06:19:28.530Z,1009.98
2022-11-02T06:20:28.520Z,1009.97
2022-11-02T06:21:28.532Z,1009.98
2022-11-02T06:22:28.495Z,1009.97
2022-11-02T06:23:28.500Z,1010.00
2022-11-02T06:24:28.486Z,1010.06
2022-11-02T06:25:28.494Z,1010.09
2022-11-02T06:26:28.456Z,1010.11
2022-11-02T06:27:28.456Z,1010.15
2022-11-02T06:28:28.435Z,1010.15
2022-11-02T06:29:28.436Z,1010.15
2022-11-02T06:30:28.426Z,1010.16
2022-11-02T06:31:28.433Z,1010.17
2022-11-02T06:32:28.393Z,1010.18
2022-11-02T06:33:28.402Z,1010.16
2022-11-02T06:34:28.386Z,1010.18
2022-11-02T06:35:28.385Z,1010.20
2022-11-02T06:36:28.363Z,1010.22
2022-11-02T06:37:28.345Z,1010.23
2022-11-02T06:38:28.330Z,1010.19
2022-11-02T06:39:28.339Z,1010.19
2022-11-02T06:40:28.314Z,1010.17
2022-11-02T06:41:28.339Z,1010.20
2022-11-02T06:42:28.283Z,1010.22
2022-11-02T06:43:28.280Z,1010.24
2022-11-02T06:44:28.264Z,1010.29
2022-11-02T06:45:28.259Z,1010.31
2022-11-02T06:46:28.244Z,1010.33
2022-11-02T06:47:28.252Z,1010.34
2022-11-02T06:48:34.321Z,1010.34
2022-11-02T06:49:28.226Z,1010.34
2022-11-02T06:50:28.198Z,1010.37
2022-11-02T06:51:28.218Z,1010.35
2022-11-02T06:52:28.189Z,1010.34
2022-11-02T06:53:28.247Z,1010.35
2022-11-02T06:54:28.161Z,1010.36
2022-11-02T06:55:28.150Z,1010.35
2022-11-02T06:56:28.142Z,1010.34
2022-11-02T06:57:28.131Z,1010.36
2022-11-02T06:58:28.126Z,1010.40
2022-11-02T06:59:28.133Z,1010.43
2022-11-02T07:00:28.400Z,1010.46
2022-11-02T07:01:28.380Z,1010.48
2022-11-02T07:02:28.130Z,1010.49
2022-11-02T07:03:28.066Z,1010.51
2022-11-02T07:04:28.052Z,1010.52
2022-11-02T07:05:28.046Z,1010.52
2022-11-02T07:06:28.077Z,1010.53
2022-11-02T07:07:28.042Z,1010.54
2022-11-02T07:08:28.006Z,1010.55
2022-11-02T07:09:28.010Z,1010.58
2022-11-02T07:10:28.082Z,1010.61
2022-11-02T07:11:27.980Z,1010.64
2022-11-02T07:12:27.974Z,1010.66
2022-11-02T07:13:27.979Z,1010.67
2022-11-02T07:14:27.946Z,1010.67
2022-11-02T07:15:27.938Z,1010.68
2022-11-02T07:16:27.946Z,1010.69
2022-11-02T07:17:31.995Z,1010.72
2022-11-02T07:18:27.915Z,1010.74
2022-11-02T07:19:27.891Z,1010.75
2022-11-02T07:20:27.878Z,1010.78
2022-11-02T07:21:27.882Z,1010.80
2022-11-02T07:22:27.886Z,1010.80
2022-11-02T07:23:27.853Z,1010.83
2022-11-02T07:24:27.833Z,1010.84
2022-11-02T07:25:27.837Z,1010.86
2022-11-02T07:26:27.834Z,1010.90
2022-11-02T07:27:27.810Z,1010.89
2022-11-02T07:28:27.808Z,1010.90
2022-11-02T07:29:27.792Z,1010.93
2022-11-02T07:30:27.805Z,1010.96
2022-11-02T07:31:27.781Z,1010.99
2022-11-02T07:32:27.755Z,1011.02
2022-11-02T07:33:27.754Z,1011.03
2022-11-02T07:34:27.753Z,1011.03
2022-11-02T07:35:27.748Z,1011.05
2022-11-02T07:36:27.714Z,1011.05
2022-11-02T07:37:27.714Z,1011.06
2022-11-02T07:38:27.685Z,1011.07
2022-11-02T07:39:27.684Z,1011.09
2022-11-02T07:40:27.806Z,1011.09
2022-11-02T07:41:27.664Z,1011.08
2022-11-02T07:42:27.658Z,1011.08
2022-11-02T07:43:27.638Z,1011.06
2022-11-02T07:44:27.695Z,1011.05
2022-11-02T07:45:27.619Z,1011.06
2022-11-02T07:46:27.617Z,1011.06
2022-11-02T07:47:27.595Z,1011.04
2022-11-02T07:48:27.608Z,1011.03
2022-11-02T07:49:27.584Z,1011.02
2022-11-02T07:50:27.663Z,1011.03
2022-11-02T07:51:27.550Z,1011.02
2022-11-02T07:52:27.587Z,1011.03
2022-11-02T07:53:27.540Z,1011.06
2022-11-02T07:54:27.569Z,1011.05
2022-11-02T07:55:27.524Z,1011.07
2022-11-02T07:56:27.508Z,1011.08
2022-11-02T07:57:27.500Z,1011.08
2022-11-02T07:58:27.483Z,1011.07
2022-11-02T07:59:27.486Z,1011.09
2022-11-02T08:00:27.485Z,1011.08
2022-11-02T08:01:27.493Z,1011.09
2022-11-02T08:02:27.519Z,1011.09
2022-11-02T08:03:27.537Z,1011.11
2022-11-02T08:04:27.418Z,1011.14
2022-11-02T08:05:27.416Z,1011.15
2022-11-02T08:06:27.416Z,1011.15
2022-11-02T08:07:27.399Z,1011.19
2022-11-02T08:08:27.391Z,1011.19
2022-11-02T08:09:27.380Z,1011.21
2022-11-02T08:10:27.355Z,1011.22
2022-11-02T08:11:27.341Z,1011.20
2022-11-02T08:12:27.384Z,1011.20
2022-11-02T08:13:27.320Z,1011.19
2022-11-02T08:14:27.326Z,1011.23
2022-11-02T08:15:27.308Z,1011.24
2022-11-02T08:16:27.288Z,1011.23
2022-11-02T08:17:27.294Z,1011.20
2022-11-02T08:18:27.280Z,1011.21
2022-11-02T08:19:27.259Z,1011.24
2022-11-02T08:20:27.258Z,1011.24
2022-11-02T08:21:27.272Z,1011.24
2022-11-02T08:22:27.227Z,1011.26
2022-11-02T08:23:27.487Z,1011.29
2022-11-02T08:24:27.373Z,1011.32
2022-11-02T08:25:27.202Z,1011.30
2022-11-02T08:26:27.185Z,1011.33
2022-11-02T08:27:27.180Z,1011.31
2022-11-02T08:28:27.178Z,1011.37
2022-11-02T08:29:27.155Z,1011.35
2022-11-02T08:30:27.160Z,1011.34
2022-11-02T08:31:27.140Z,1011.37
2022-11-02T08:32:27.124Z,1011.37
2022-11-02T08:33:27.109Z,1011.40
2022-11-02T08:34:27.096Z,1011.42
2022-11-02T08:35:27.120Z,1011.42
2022-11-02T08:36:27.083Z,1011.44
2022-11-02T08:37:27.075Z,1011.42
2022-11-02T08:38:27.058Z,1011.43
2022-11-02T08:39:27.047Z,1011.41
2022-11-02T08:40:27.043Z,1011.39
2022-11-02T08:41:27.038Z,1011.36
2022-11-02T08:42:27.022Z,1011.38
2022-11-02T08:43:27.000Z,1011.34
2022-11-02T08:44:26.991Z,1011.33
2022-11-02T08:45:26.988Z,1011.35
2022-11-02T08:46:26.975Z,1011.37
2022-11-02T08:47:26.991Z,1011.36
2022-11-02T08:48:26.952Z,1011.37
2022-11-02T08:49:26.936Z,1011.35
2022-11-02T08:50:26.928Z,1011.33
2022-11-02T08:51:26.916Z,1011.31
2022-11-02T08:52:26.906Z,1011.33
2022-11-02T08:53:26.914Z,1011.30
2022-11-02T08:54:26.891Z,1011.32
2022-11-02T08:55:26.876Z,1011.30
2022-11-02T08:56:26.866Z,1011.31
2022-11-02T08:57:26.856Z,1011.29
2022-11-02T08:58:26.840Z,1011.27
2022-11-02T08:59:26.879Z,1011.23
2022-11-02T09:00:26.834Z,1011.22
2022-11-02T09:01:26.904Z,1011.24
2022-11-02T09:02:26.894Z,1011.25
2022-11-02T09:03:27.688Z,1011.24
2022-11-02T09:04:26.781Z,1011.28
2022-11-02T09:05:26.792Z,1011.26
2022-11-02T09:06:26.764Z,1011.28
2022-11-02T09:07:26.766Z,1011.24
2022-11-02T09:08:26.763Z,1011.26
2022-11-02T09:09:26.746Z,1011.26
2022-11-02T09:10:26.738Z,1011.25
2022-11-02T09:11:26.709Z,1011.30
2022-11-02T09:12:26.719Z,1011.33
2022-11-02T09:13:26.752Z,1011.32
2022-11-02T09:14:26.759Z,1011.38
2022-11-02T09:15:26.664Z,1011.37
2022-11-02T09:16:26.652Z,1011.44
2022-11-02T09:17:26.644Z,1011.40
2022-11-02T09:18:26.644Z,1011.45
2022-11-02T09:19:26.614Z,1011.46
2022-11-02T09:20:26.652Z,1011.40
2022-11-02T09:21:26.597Z,1011.40
2022-11-02T09:22:26.601Z,1011.42
2022-11-02T09:23:26.572Z,1011.40
2022-11-02T09:24:26.586Z,1011.43
2022-11-02T09:25:26.560Z,1011.43
2022-11-02T09:26:26.601Z,1011.42
2022-11-02T09:27:26.534Z,1011.45
2022-11-02T09:28:26.538Z,1011.45
2022-11-02T09:29:26.528Z,1011.45
2022-11-02T09:30:26.496Z,1011.47
2022-11-02T09:31:26.487Z,1011.54
2022-11-02T09:32:26.486Z,1011.43
2022-11-02T09:33:26.469Z,1011.49
2022-11-02T09:34:26.457Z,1011.47
2022-11-02T09:35:26.465Z,1011.43
2022-11-02T09:36:26.437Z,1011.43
2022-11-02T09:37:26.433Z,1011.49
2022-11-02T09:38:26.423Z,1011.50
2022-11-02T09:39:26.401Z,1011.54
2022-11-02T09:40:26.393Z,1011.53
2022-11-02T09:41:26.419Z,1011.52
2022-11-02T09:42:26.373Z,1011.52
2022-11-02T09:43:31.916Z,1011.56
2022-11-02T09:44:26.362Z,1011.56
2022-11-02T09:45:26.340Z,1011.51
2022-11-02T09:46:26.333Z,1011.53
2022-11-02T09:48:14.853Z,1011.52
2022-11-02T09:48:28.576Z,1011.60
2022-11-02T09:49:26.293Z,1011.60
2022-11-02T09:51:26.286Z,1011.50
2022-11-02T09:52:26.427Z,1011.51
2022-11-02T09:53:26.263Z,1011.47
2022-11-02T09:54:26.260Z,1011.46
2022-11-02T09:55:26.251Z,1011.49
2022-11-02T09:56:26.224Z,1011.50
2022-11-02T09:57:26.224Z,1011.54
2022-11-02T09:58:26.215Z,1011.52
2022-11-02T09:59:26.193Z,1011.55
2022-11-02T10:00:26.184Z,1011.51
2022-11-02T10:01:26.199Z,1011.56
2022-11-02T10:02:26.189Z,1011.55
2022-11-02T10:03:26.255Z,1011.57
2022-11-02T10:04:26.170Z,1011.55
2022-11-02T10:05:26.141Z,1011.61
2022-11-02T10:06:26.113Z,1011.61
2022-11-02T10:07:26.099Z,1011.65
2022-11-02T10:08:26.097Z,1011.65
2022-11-02T10:09:26.079Z,1011.70
2022-11-02T10:10:26.121Z,1011.72
2022-11-02T10:11:26.106Z,1011.69
2022-11-02T10:12:26.052Z,1011.65
2022-11-02T10:13:26.040Z,1011.65
2022-11-02T10:14:26.037Z,1011.67
2022-11-02T10:15:26.015Z,1011.73
2022-11-02T10:16:26.024Z,1011.71
2022-11-02T10:17:25.994Z,1011.69
2022-11-02T10:18:25.992Z,1011.78
2022-11-02T10:19:27.753Z,1011.77
2022-11-02T10:20:25.976Z,1011.88
2022-11-02T10:21:25.973Z,1011.83
2022-11-02T10:22:25.974Z,1011.81
2022-11-02T10:23:25.949Z,1011.89
2022-11-02T10:24:25.923Z,1011.85
2022-11-02T10:25:25.914Z,1011.92
2022-11-02T10:26:25.900Z,1011.97
2022-11-02T10:27:25.888Z,1012.01
2022-11-02T10:28:25.998Z,1012.04
2022-11-02T10:29:25.868Z,1012.09
2022-11-02T10:30:25.868Z,1012.08
2022-11-02T10:31:25.841Z,1012.03
2022-11-02T10:32:25.860Z,1011.98
2022-11-02T10:33:25.832Z,1012.00
2022-11-02T10:34:25.831Z,1011.99
2022-11-02T10:35:37.243Z,1012.03
2022-11-02T10:36:25.803Z,1012.02
2022-11-02T10:37:25.780Z,1011.94
2022-11-02T10:38:25.789Z,1012.02
2022-11-02T10:39:25.769Z,1012.04
2022-11-02T10:40:25.749Z,1012.02
2022-11-02T10:41:25.736Z,1012.03
2022-11-02T10:42:25.729Z,1012.04
2022-11-02T10:43:25.714Z,1012.05
2022-11-02T10:44:25.708Z,1012.16
2022-11-02T10:45:25.705Z,1012.09
2022-11-02T10:46:25.700Z,1012.03
2022-11-02T10:47:25.683Z,1012.08
2022-11-02T10:48:25.659Z,1011.96
2022-11-02T10:49:25.648Z,1011.98
2022-11-02T10:50:25.702Z,1011.93
2022-11-02T10:51:25.631Z,1011.89
2022-11-02T10:52:25.692Z,1011.94
2022-11-02T10:53:40.594Z,1011.83
2022-11-02T10:54:30.945Z,1011.83
2022-11-02T10:55:25.597Z,1011.86
2022-11-02T10:56:25.597Z,1011.82
2022-11-02T10:57:25.584Z,1011.88
2022-11-02T10:58:25.554Z,1011.90
2022-11-02T10:59:25.557Z,1011.90
2022-11-02T11:00:25.668Z,1011.91
2022-11-02T11:01:25.674Z,1011.87
2022-11-02T11:02:25.531Z,1011.92
2022-11-02T11:03:25.502Z,1011.95
2022-11-02T11:04:25.490Z,1011.88
2022-11-02T11:05:25.482Z,1011.81
2022-11-02T11:06:25.511Z,1011.91
2022-11-02T11:07:25.462Z,1011.78
2022-11-02T11:08:25.451Z,1011.81
2022-11-02T11:09:25.440Z,1011.74
2022-11-02T11:10:25.431Z,1011.77
2022-11-02T11:11:25.421Z,1011.77
2022-11-02T11:12:25.457Z,1011.74
2022-11-02T11:16:26.528Z,1011.78
2022-11-02T11:19:41.434Z,1011.70
2022-11-02T11:20:25.348Z,1011.66
2022-11-02T11:21:25.312Z,1011.66
2022-11-02T11:22:25.304Z,1011.70
2022-11-02T11:23:25.291Z,1011.70
2022-11-02T11:24:25.349Z,1011.66
2022-11-02T11:25:27.978Z,1011.71
2022-11-02T11:26:25.281Z,1011.73
2022-11-02T11:27:25.246Z,1011.75
2022-11-02T11:28:25.240Z,1011.76
2022-11-02T11:29:25.230Z,1011.73
2022-11-02T11:30:46.222Z,1011.69
2022-11-02T11:31:25.213Z,1011.69
2022-11-02T11:32:29.884Z,1011.68
2022-11-02T11:33:25.188Z,1011.70
2022-11-02T11:34:25.178Z,1011.70
2022-11-02T11:35:25.168Z,1011.68
2022-11-02T11:37:25.137Z,1011.65
2022-11-02T11:38:25.138Z,1011.64
2022-11-02T11:39:25.151Z,1011.59
2022-11-02T11:40:25.107Z,1011.65
2022-11-02T11:41:25.096Z,1011.69
2022-11-02T11:42:25.101Z,1011.57
2022-11-02T11:43:25.111Z,1011.52
2022-11-02T11:44:25.080Z,1011.57
2022-11-02T11:45:25.058Z,1011.50
2022-11-02T11:46:25.073Z,1011.52
2022-11-02T11:47:25.057Z,1011.50
2022-11-02T11:48:25.030Z,1011.52
2022-11-02T11:49:41.553Z,1011.50
2022-11-02T11:50:28.606Z,1011.52
2022-11-02T11:51:25.999Z,1011.51
2022-11-02T11:52:30.939Z,1011.53
2022-11-02T11:53:24.973Z,1011.51
2022-11-02T11:54:24.963Z,1011.53
2022-11-02T11:55:24.955Z,1011.51
2022-11-02T11:56:24.942Z,1011.51
2022-11-02T11:57:25.080Z,1011.54
2022-11-02T11:58:24.949Z,1011.51
2022-11-02T11:59:24.901Z,1011.49
2022-11-02T12:00:24.912Z,1011.51
2022-11-02T12:01:24.963Z,1011.51
2022-11-02T12:02:25.014Z,1011.54
2022-11-02T12:03:24.952Z,1011.53
2022-11-02T12:04:24.850Z,1011.55
2022-11-02T12:05:24.837Z,1011.51
2022-11-02T12:06:24.903Z,1011.58
2022-11-02T12:07:24.819Z,1011.50
2022-11-02T12:08:24.803Z,1011.53
2022-11-02T12:09:24.817Z,1011.47
2022-11-02T12:10:24.783Z,1011.45
2022-11-02T12:11:24.780Z,1011.47
2022-11-02T12:12:24.775Z,1011.43
2022-11-02T12:13:24.775Z,1011.39
2022-11-02T12:14:24.758Z,1011.42
2022-11-02T12:15:24.741Z,1011.40
2022-11-02T12:16:24.729Z,1011.48
2022-11-02T12:17:30.794Z,1011.36
2022-11-02T12:18:24.702Z,1011.33
2022-11-02T12:19:27.307Z,1011.29
2022-11-02T12:20:24.681Z,1011.29
2022-11-02T12:21:24.673Z,1011.31
2022-11-02T12:22:24.669Z,1011.32
2022-11-02T12:23:24.677Z,1011.31
2022-11-02T12:24:24.642Z,1011.32
2022-11-02T12:25:24.628Z,1011.24
2022-11-02T12:26:24.618Z,1011.25
2022-11-02T12:27:24.604Z,1011.25
2022-11-02T12:28:24.600Z,1011.27
2022-11-02T12:29:24.614Z,1011.29
2022-11-02T12:30:24.589Z,1011.25
2022-11-02T12:31:24.563Z,1011.23
2022-11-02T12:32:24.550Z,1011.24
2022-11-02T12:33:24.547Z,1011.24
2022-11-02T12:34:24.544Z,1011.21
2022-11-02T12:35:29.485Z,1011.22
2022-11-02T12:36:24.510Z,1011.36
2022-11-02T12:37:39.035Z,1011.29
2022-11-02T12:38:24.495Z,1011.21
2022-11-02T12:39:24.487Z,1011.22
2022-11-02T12:41:24.481Z,1011.23
2022-11-02T12:42:24.442Z,1011.24
2022-11-02T12:43:24.443Z,1011.23
2022-11-02T12:44:24.424Z,1011.20
2022-11-02T12:45:24.422Z,1011.22
2022-11-02T12:46:24.401Z,1011.25
2022-11-02T12:47:24.423Z,1011.23
2022-11-02T12:48:24.380Z,1011.25
2022-11-02T12:49:24.384Z,1011.28
2022-11-02T12:50:24.359Z,1011.28
2022-11-02T12:51:24.361Z,1011.35
2022-11-02T12:52:24.349Z,1011.40
2022-11-02T12:53:24.365Z,1011.38
2022-11-02T12:54:24.315Z,1011.41
2022-11-02T12:55:24.312Z,1011.45
2022-11-02T12:56:24.296Z,1011.48
2022-11-02T12:57:24.284Z,1011.40
2022-11-02T12:58:24.282Z,1011.38
2022-11-02T12:59:24.289Z,1011.36
2022-11-02T13:00:24.251Z,1011.29
2022-11-02T13:01:24.411Z,1011.26
2022-11-02T13:02:24.238Z,1011.25
2022-11-02T13:03:24.261Z,1011.25
2022-11-02T13:04:27.897Z,1011.25
2022-11-02T13:05:24.206Z,1011.25
2022-11-02T13:06:24.189Z,1011.26
2022-11-02T13:07:24.182Z,1011.24
2022-11-02T13:08:24.166Z,1011.23
2022-11-02T13:09:24.170Z,1011.18
2022-11-02T13:10:24.159Z,1011.14
2022-11-02T13:11:24.149Z,1011.13
2022-11-02T13:12:24.144Z,1011.19
2022-11-02T13:13:24.127Z,1011.21
2022-11-02T13:14:24.123Z,1011.19
2022-11-02T13:15:24.103Z,1011.13
2022-11-02T13:16:24.085Z,1011.09
2022-11-02T13:17:24.075Z,1011.10
2022-11-02T13:18:24.057Z,1011.09
2022-11-02T13:19:24.055Z,1011.08
2022-11-02T13:20:24.055Z,1011.08
2022-11-02T13:21:24.039Z,1011.08
2022-11-02T13:22:24.024Z,1011.09
2022-11-02T13:23:24.114Z,1011.09
2022-11-02T13:24:27.860Z,1011.12
2022-11-02T13:25:24.008Z,1011.11
2022-11-02T13:26:23.974Z,1011.13
2022-11-02T13:27:35.901Z,1011.08
2022-11-02T13:28:23.966Z,1011.14
2022-11-02T13:29:23.961Z,1011.08
2022-11-02T13:30:23.945Z,1011.05
2022-11-02T13:31:23.925Z,1011.04
2022-11-02T13:32:23.930Z,1011.03
2022-11-02T13:33:23.908Z,1011.06
2022-11-02T13:34:23.898Z,1011.06
2022-11-02T13:35:23.880Z,1011.00
2022-11-02T13:36:23.882Z,1010.99
2022-11-02T13:37:23.861Z,1011.06
2022-11-02T13:38:23.856Z,1011.00
2022-11-02T13:39:23.850Z,1010.97
2022-11-02T13:40:23.836Z,1011.01
2022-11-02T13:41:23.847Z,1011.00
2022-11-02T13:42:23.813Z,1011.00
2022-11-02T13:43:23.790Z,1010.99
2022-11-02T13:44:23.807Z,1011.01
2022-11-02T13:45:23.825Z,1011.01
2022-11-02T13:46:23.769Z,1011.01
2022-11-02T13:47:23.759Z,1011.02
2022-11-02T13:48:23.752Z,1010.99
2022-11-02T13:49:23.735Z,1011.00
2022-11-02T13:50:23.754Z,1010.98
2022-11-02T13:51:23.716Z,1010.97
2022-11-02T13:52:23.694Z,1010.97
2022-11-02T13:53:23.686Z,1010.87
2022-11-02T13:54:23.666Z,1010.91
2022-11-02T13:55:23.735Z,1010.86
2022-11-02T13:56:23.692Z,1010.82
2022-11-02T13:57:23.652Z,1010.81
2022-11-02T13:58:23.634Z,1010.87
2022-11-02T13:59:23.640Z,1010.85
2022-11-02T14:00:23.682Z,1010.85
2022-11-02T14:01:23.711Z,1010.84
2022-11-02T14:02:23.723Z,1010.83
2022-11-02T14:03:23.584Z,1010.80
2022-11-02T14:04:23.571Z,1010.82
2022-11-02T14:05:23.561Z,1010.84
2022-11-02T14:06:23.544Z,1010.88
2022-11-02T14:07:23.599Z,1010.88
2022-11-02T14:08:23.524Z,1010.89
2022-11-02T14:09:23.524Z,1010.93
2022-11-02T14:10:23.497Z,1010.91
2022-11-02T14:11:23.505Z,1010.93
2022-11-02T14:12:23.516Z,1010.94
2022-11-02T14:13:23.476Z,1010.94
2022-11-02T14:14:23.468Z,1010.94
2022-11-02T14:15:23.449Z,1010.93
2022-11-02T14:16:23.503Z,1010.97
2022-11-02T14:17:23.446Z,1010.99
2022-11-02T14:18:23.427Z,1011.00
2022-11-02T14:19:23.419Z,1010.99
2022-11-02T14:20:23.398Z,1011.01
2022-11-02T14:21:23.385Z,1011.04
2022-11-02T14:22:23.381Z,1011.05
2022-11-02T14:23:23.389Z,1011.06
2022-11-02T14:24:23.353Z,1011.06
2022-11-02T14:25:23.344Z,1011.07
2022-11-02T14:26:23.344Z,1011.06
2022-11-02T14:27:23.323Z,1010.97
2022-11-02T14:28:23.313Z,1011.04
2022-11-02T14:29:23.332Z,1011.02
2022-11-02T14:30:23.306Z,1011.03
2022-11-02T14:31:23.295Z,1010.98
2022-11-02T14:32:23.277Z,1011.00
2022-11-02T14:33:23.265Z,1011.03
2022-11-02T14:34:23.245Z,1011.02
2022-11-02T14:35:23.256Z,1011.04
2022-11-02T14:36:23.218Z,1011.04
2022-11-02T14:37:23.228Z,1011.03
2022-11-02T14:38:23.216Z,1011.01
2022-11-02T14:39:23.193Z,1011.01
2022-11-02T14:40:23.193Z,1011.02
2022-11-02T14:41:23.173Z,1011.02
2022-11-02T14:42:23.159Z,1011.04
2022-11-02T14:43:23.179Z,1011.03
2022-11-02T14:44:23.162Z,1011.04
2022-11-02T14:45:23.130Z,1011.01
2022-11-02T14:46:23.134Z,1011.04
2022-11-02T14:47:23.108Z,1011.02
2022-11-02T14:48:23.113Z,1011.02
2022-11-02T14:49:23.112Z,1011.03
2022-11-02T14:50:23.073Z,1011.02
2022-11-02T14:51:23.065Z,1011.04
2022-11-02T14:52:23.056Z,1011.02
2022-11-02T14:53:23.063Z,1011.01
2022-11-02T14:54:23.034Z,1010.99
2022-11-02T14:55:23.034Z,1010.99
2022-11-02T14:56:23.024Z,1010.99
2022-11-02T14:57:23.000Z,1011.00
2022-11-02T14:58:22.999Z,1011.01
2022-11-02T14:59:23.007Z,1011.00
2022-11-02T15:00:23.016Z,1011.01
2022-11-02T15:01:22.994Z,1011.00
2022-11-02T15:02:22.944Z,1011.02
2022-11-02T15:03:22.942Z,1011.03
2022-11-02T15:04:22.957Z,1011.05
2022-11-02T15:05:22.952Z,1011.01
2022-11-02T15:06:22.915Z,1011.01
2022-11-02T15:07:22.922Z,1011.02
2022-11-02T15:08:22.889Z,1011.00
2022-11-02T15:09:22.883Z,1011.01
2022-11-02T15:10:22.873Z,1010.98
2022-11-02T15:11:22.852Z,1010.96
2022-11-02T15:12:22.871Z,1010.95
2022-11-02T15:13:22.836Z,1010.95
2022-11-02T15:14:22.818Z,1010.95
2022-11-02T15:15:22.816Z,1010.97
2022-11-02T15:16:22.813Z,1010.94
2022-11-02T15:17:22.805Z,1010.96
2022-11-02T15:18:22.775Z,1010.96
2022-11-02T15:19:22.778Z,1010.96
2022-11-02T15:20:22.755Z,1010.95
2022-11-02T15:21:22.746Z,1010.93
2022-11-02T15:22:22.753Z,1010.95
2022-11-02T15:23:30.667Z,1010.95
2022-11-02T15:24:22.719Z,1010.96
2022-11-02T15:25:22.703Z,1010.96
2022-11-02T15:26:22.688Z,1010.95
2022-11-02T15:27:22.686Z,1010.95
2022-11-02T15:28:22.709Z,1010.93
2022-11-02T15:29:22.663Z,1010.92
2022-11-02T15:30:28.056Z,1010.91
2022-11-02T15:31:26.151Z,1010.90
2022-11-02T15:32:23.168Z,1010.89
2022-11-02T15:33:22.616Z,1010.87
2022-11-02T15:34:22.664Z,1010.86
2022-11-02T15:35:22.738Z,1010.86
2022-11-02T15:36:22.577Z,1010.84
2022-11-02T15:37:22.574Z,1010.86
2022-11-02T15:38:29.630Z,1010.86
2022-11-02T15:39:22.574Z,1010.88
2022-11-02T15:40:22.565Z,1010.91
2022-11-02T15:41:22.539Z,1010.93
2022-11-02T15:42:22.546Z,1010.94
2022-11-02T15:43:22.514Z,1010.97
2022-11-02T15:44:22.520Z,1010.99
2022-11-02T15:46:22.484Z,1011.02
2022-11-02T15:47:22.472Z,1011.02
2022-11-02T15:48:22.482Z,1011.02
2022-11-02T15:49:22.444Z,1011.01
2022-11-02T15:50:22.440Z,1010.98
2022-11-02T15:51:22.453Z,1010.96
2022-11-02T15:52:22.423Z,1010.94
2022-11-02T15:53:24.022Z,1010.92
2022-11-02T15:54:22.447Z,1010.90
2022-11-02T15:55:22.411Z,1010.88
2022-11-02T15:56:22.429Z,1010.87
2022-11-02T15:57:22.388Z,1010.85
2022-11-02T15:58:22.361Z,1010.84
2022-11-02T15:59:22.337Z,1010.83
2022-11-02T16:00:22.462Z,1010.82
2022-11-02T16:01:22.520Z,1010.82
2022-11-02T16:02:22.379Z,1010.82
2022-11-02T16:03:22.319Z,1010.82
2022-11-02T16:04:22.294Z,1010.83
2022-11-02T16:05:22.287Z,1010.84